Terminal Aerodrome Forecast
Issued by NWS

Home | Current Version | Previous Version | Text Only | Print | Product List | Glossary On
Versions: 1 2 3 4 5 6 7 8 9 10 11 12 13 14 15 16 17 18 19 20 21 22
000
FTUS43 KLSX 160300 AAB
TAFUIN
TAF AMD
KUIN 160354Z 1604/1624 36010KT P6SM BKN018
     FM160600 VRB03KT 3SM BR SKC
     FM161400 36004KT P6SM SKC=

USA.gov is the U.S. government's official web portal to all federal, state and local government web resources and services.